sensor_id;sensor_type;location;lat;lon;timestamp;P1;durP1;ratioP1;P2;durP2;ratioP2
33491;SDS011;20010;51.488;7.232;2023-12-20T00:02:11;51.17;;;26.98;;
33491;SDS011;20010;51.488;7.232;2023-12-20T00:04:38;40.55;;;23.02;;
33491;SDS011;20010;51.488;7.232;2023-12-20T00:07:05;43.78;;;23.05;;
33491;SDS011;20010;51.488;7.232;2023-12-20T00:09:31;44.60;;;24.73;;
33491;SDS011;20010;51.488;7.232;2023-12-20T00:11:58;47.85;;;25.98;;
33491;SDS011;20010;51.488;7.232;2023-12-20T00:14:25;42.42;;;24.75;;
33491;SDS011;20010;51.488;7.232;2023-12-20T00:16:51;47.42;;;25.55;;
33491;SDS011;20010;51.488;7.232;2023-12-20T00:19:18;46.75;;;28.67;;
33491;SDS011;20010;51.488;7.232;2023-12-20T00:21:45;50.85;;;26.55;;
33491;SDS011;20010;51.488;7.232;2023-12-20T00:24:12;41.45;;;26.10;;
33491;SDS011;20010;51.488;7.232;2023-12-20T00:26:38;45.58;;;25.85;;
33491;SDS011;20010;51.488;7.232;2023-12-20T00:29:05;44.58;;;25.85;;
33491;SDS011;20010;51.488;7.232;2023-12-20T00:31:32;49.67;;;26.63;;
33491;SDS011;20010;51.488;7.232;2023-12-20T00:33:59;42.05;;;24.45;;
33491;SDS011;20010;51.488;7.232;2023-12-20T00:36:26;40.95;;;24.15;;
33491;SDS011;20010;51.488;7.232;2023-12-20T00:38:53;34.90;;;19.90;;
33491;SDS011;20010;51.488;7.232;2023-12-20T00:41:20;33.75;;;19.25;;
33491;SDS011;20010;51.488;7.232;2023-12-20T00:43:46;33.15;;;17.73;;
33491;SDS011;20010;51.488;7.232;2023-12-20T00:46:13;27.30;;;16.05;;
33491;SDS011;20010;51.488;7.232;2023-12-20T00:48:39;23.45;;;15.18;;
33491;SDS011;20010;51.488;7.232;2023-12-20T00:51:08;21.23;;;14.15;;
33491;SDS011;20010;51.488;7.232;2023-12-20T00:53:35;25.40;;;14.68;;
33491;SDS011;20010;51.488;7.232;2023-12-20T00:56:01;27.17;;;14.75;;
33491;SDS011;20010;51.488;7.232;2023-12-20T00:58:28;18.83;;;12.52;;
33491;SDS011;20010;51.488;7.232;2023-12-20T01:00:55;28.08;;;13.55;;
33491;SDS011;20010;51.488;7.232;2023-12-20T01:03:24;23.17;;;13.05;;
33491;SDS011;20010;51.488;7.232;2023-12-20T01:05:52;24.17;;;12.38;;
33491;SDS011;20010;51.488;7.232;2023-12-20T01:08:18;19.17;;;11.55;;
33491;SDS011;20010;51.488;7.232;2023-12-20T01:10:45;21.13;;;12.35;;
33491;SDS011;20010;51.488;7.232;2023-12-20T01:13:13;20.73;;;10.77;;
33491;SDS011;20010;51.488;7.232;2023-12-20T01:15:41;19.27;;;12.40;;
33491;SDS011;20010;51.488;7.232;2023-12-20T01:18:08;22.55;;;12.52;;
33491;SDS011;20010;51.488;7.232;2023-12-20T01:20:35;21.25;;;13.77;;
33491;SDS011;20010;51.488;7.232;2023-12-20T01:23:02;23.20;;;13.35;;
33491;SDS011;20010;51.488;7.232;2023-12-20T01:25:29;25.85;;;13.82;;
33491;SDS011;20010;51.488;7.232;2023-12-20T01:27:56;19.50;;;13.13;;
33491;SDS011;20010;51.488;7.232;2023-12-20T01:30:22;20.40;;;12.55;;
33491;SDS011;20010;51.488;7.232;2023-12-20T01:32:49;24.23;;;13.45;;
33491;SDS011;20010;51.488;7.232;2023-12-20T01:35:16;24.75;;;13.38;;
33491;SDS011;20010;51.488;7.232;2023-12-20T01:37:43;30.38;;;14.23;;
33491;SDS011;20010;51.488;7.232;2023-12-20T01:40:10;30.13;;;14.50;;
33491;SDS011;20010;51.488;7.232;2023-12-20T01:42:36;18.98;;;13.35;;
33491;SDS011;20010;51.488;7.232;2023-12-20T01:45:05;25.50;;;13.48;;
33491;SDS011;20010;51.488;7.232;2023-12-20T01:47:32;23.50;;;14.77;;
33491;SDS011;20010;51.488;7.232;2023-12-20T01:49:59;24.17;;;14.40;;
33491;SDS011;20010;51.488;7.232;2023-12-20T01:52:26;25.35;;;13.70;;
33491;SDS011;20010;51.488;7.232;2023-12-20T01:54:53;24.50;;;12.65;;
33491;SDS011;20010;51.488;7.232;2023-12-20T01:57:23;22.48;;;12.70;;
33491;SDS011;20010;51.488;7.232;2023-12-20T01:59:50;23.85;;;12.73;;
33491;SDS011;20010;51.488;7.232;2023-12-20T02:02:16;21.35;;;11.25;;
33491;SDS011;20010;51.488;7.232;2023-12-20T02:04:43;18.70;;;10.73;;
33491;SDS011;20010;51.488;7.232;2023-12-20T02:07:10;22.85;;;9.18;;
33491;SDS011;20010;51.488;7.232;2023-12-20T02:09:38;12.43;;;8.73;;
33491;SDS011;20010;51.488;7.232;2023-12-20T02:12:05;17.63;;;7.85;;
33491;SDS011;20010;51.488;7.232;2023-12-20T02:14:32;13.45;;;8.23;;
33491;SDS011;20010;51.488;7.232;2023-12-20T02:16:58;16.23;;;8.75;;
33491;SDS011;20010;51.488;7.232;2023-12-20T02:19:25;17.13;;;8.82;;
33491;SDS011;20010;51.488;7.232;2023-12-20T02:22:04;14.70;;;8.02;;
33491;SDS011;20010;51.488;7.232;2023-12-20T02:24:32;15.13;;;7.80;;
33491;SDS011;20010;51.488;7.232;2023-12-20T02:26:59;18.20;;;8.55;;
33491;SDS011;20010;51.488;7.232;2023-12-20T02:29:25;16.27;;;8.20;;
33491;SDS011;20010;51.488;7.232;2023-12-20T02:31:52;19.55;;;8.18;;
33491;SDS011;20010;51.488;7.232;2023-12-20T02:34:19;18.95;;;9.93;;
33491;SDS011;20010;51.488;7.232;2023-12-20T02:36:45;20.58;;;9.88;;
33491;SDS011;20010;51.488;7.232;2023-12-20T02:39:12;23.98;;;11.45;;
33491;SDS011;20010;51.488;7.232;2023-12-20T02:41:39;23.27;;;9.88;;
33491;SDS011;20010;51.488;7.232;2023-12-20T02:44:06;22.33;;;10.75;;
33491;SDS011;20010;51.488;7.232;2023-12-20T02:46:32;23.98;;;10.98;;
33491;SDS011;20010;51.488;7.232;2023-12-20T02:48:59;20.50;;;10.02;;
33491;SDS011;20010;51.488;7.232;2023-12-20T02:51:26;16.70;;;9.60;;
33491;SDS011;20010;51.488;7.232;2023-12-20T02:53:52;19.42;;;12.05;;
33491;SDS011;20010;51.488;7.232;2023-12-20T02:56:19;21.63;;;10.25;;
33491;SDS011;20010;51.488;7.232;2023-12-20T02:58:46;19.02;;;9.77;;
33491;SDS011;20010;51.488;7.232;2023-12-20T03:01:12;18.52;;;10.77;;
33491;SDS011;20010;51.488;7.232;2023-12-20T03:03:39;19.52;;;11.43;;
33491;SDS011;20010;51.488;7.232;2023-12-20T03:06:06;16.75;;;9.80;;
33491;SDS011;20010;51.488;7.232;2023-12-20T03:08:32;20.38;;;11.75;;
33491;SDS011;20010;51.488;7.232;2023-12-20T03:10:59;23.30;;;11.73;;
33491;SDS011;20010;51.488;7.232;2023-12-20T03:13:27;20.05;;;10.93;;
33491;SDS011;20010;51.488;7.232;2023-12-20T03:15:53;17.65;;;10.93;;
33491;SDS011;20010;51.488;7.232;2023-12-20T03:18:20;19.85;;;12.52;;
33491;SDS011;20010;51.488;7.232;2023-12-20T03:20:47;18.40;;;11.60;;
33491;SDS011;20010;51.488;7.232;2023-12-20T03:23:16;21.90;;;13.00;;
33491;SDS011;20010;51.488;7.232;2023-12-20T03:25:42;27.25;;;13.73;;
33491;SDS011;20010;51.488;7.232;2023-12-20T03:28:09;24.30;;;13.15;;
33491;SDS011;20010;51.488;7.232;2023-12-20T03:30:36;21.83;;;14.15;;
33491;SDS011;20010;51.488;7.232;2023-12-20T03:33:03;19.77;;;12.10;;
33491;SDS011;20010;51.488;7.232;2023-12-20T03:35:29;20.65;;;12.45;;
33491;SDS011;20010;51.488;7.232;2023-12-20T03:37:56;28.40;;;14.00;;
33491;SDS011;20010;51.488;7.232;2023-12-20T03:40:23;21.08;;;12.20;;
33491;SDS011;20010;51.488;7.232;2023-12-20T03:42:50;27.33;;;13.57;;
33491;SDS011;20010;51.488;7.232;2023-12-20T03:45:16;20.85;;;11.68;;
33491;SDS011;20010;51.488;7.232;2023-12-20T03:47:43;24.38;;;11.70;;
33491;SDS011;20010;51.488;7.232;2023-12-20T03:50:10;22.33;;;10.88;;
33491;SDS011;20010;51.488;7.232;2023-12-20T03:52:37;20.65;;;11.15;;
33491;SDS011;20010;51.488;7.232;2023-12-20T03:55:04;22.40;;;10.95;;
33491;SDS011;20010;51.488;7.232;2023-12-20T03:57:31;22.00;;;11.82;;
33491;SDS011;20010;51.488;7.232;2023-12-20T03:59:58;26.33;;;10.60;;
33491;SDS011;20010;51.488;7.232;2023-12-20T04:02:24;25.90;;;9.80;;
33491;SDS011;20010;51.488;7.232;2023-12-20T04:04:51;17.15;;;9.60;;
33491;SDS011;20010;51.488;7.232;2023-12-20T04:07:19;22.23;;;10.60;;
33491;SDS011;20010;51.488;7.232;2023-12-20T04:09:46;23.75;;;9.50;;
33491;SDS011;20010;51.488;7.232;2023-12-20T04:12:14;16.20;;;10.02;;
33491;SDS011;20010;51.488;7.232;2023-12-20T04:14:41;17.55;;;9.25;;
33491;SDS011;20010;51.488;7.232;2023-12-20T04:17:07;24.15;;;9.45;;
33491;SDS011;20010;51.488;7.232;2023-12-20T04:19:34;22.63;;;9.55;;
33491;SDS011;20010;51.488;7.232;2023-12-20T04:22:01;19.05;;;8.63;;
33491;SDS011;20010;51.488;7.232;2023-12-20T04:24:27;24.40;;;8.55;;
33491;SDS011;20010;51.488;7.232;2023-12-20T04:26:54;18.52;;;8.90;;
33491;SDS011;20010;51.488;7.232;2023-12-20T04:29:21;17.85;;;8.13;;
33491;SDS011;20010;51.488;7.232;2023-12-20T04:31:47;17.45;;;8.52;;
33491;SDS011;20010;51.488;7.232;2023-12-20T04:34:14;20.02;;;8.70;;
33491;SDS011;20010;51.488;7.232;2023-12-20T04:36:41;34.00;;;9.75;;
33491;SDS011;20010;51.488;7.232;2023-12-20T04:39:08;18.35;;;9.95;;
33491;SDS011;20010;51.488;7.232;2023-12-20T04:41:34;25.15;;;9.43;;
33491;SDS011;20010;51.488;7.232;2023-12-20T04:44:01;24.48;;;8.35;;
33491;SDS011;20010;51.488;7.232;2023-12-20T04:46:28;20.58;;;9.38;;
33491;SDS011;20010;51.488;7.232;2023-12-20T04:48:55;22.80;;;8.48;;
33491;SDS011;20010;51.488;7.232;2023-12-20T04:51:21;27.13;;;10.10;;
33491;SDS011;20010;51.488;7.232;2023-12-20T04:53:48;24.83;;;10.48;;
33491;SDS011;20010;51.488;7.232;2023-12-20T04:56:15;25.15;;;9.70;;
33491;SDS011;20010;51.488;7.232;2023-12-20T04:58:44;24.48;;;10.32;;
33491;SDS011;20010;51.488;7.232;2023-12-20T05:01:11;29.83;;;10.43;;
33491;SDS011;20010;51.488;7.232;2023-12-20T05:03:39;21.77;;;9.95;;
33491;SDS011;20010;51.488;7.232;2023-12-20T05:06:06;36.03;;;13.05;;
33491;SDS011;20010;51.488;7.232;2023-12-20T05:08:33;19.88;;;9.52;;
33491;SDS011;20010;51.488;7.232;2023-12-20T05:10:59;26.70;;;12.80;;
33491;SDS011;20010;51.488;7.232;2023-12-20T05:13:26;22.15;;;11.45;;
33491;SDS011;20010;51.488;7.232;2023-12-20T05:18:33;19.05;;;9.77;;
33491;SDS011;20010;51.488;7.232;2023-12-20T05:21:00;18.23;;;9.82;;
33491;SDS011;20010;51.488;7.232;2023-12-20T05:23:27;18.67;;;9.95;;
33491;SDS011;20010;51.488;7.232;2023-12-20T05:25:53;22.92;;;9.98;;
33491;SDS011;20010;51.488;7.232;2023-12-20T05:28:20;25.73;;;11.85;;
33491;SDS011;20010;51.488;7.232;2023-12-20T05:30:47;21.63;;;10.30;;
33491;SDS011;20010;51.488;7.232;2023-12-20T05:33:14;23.45;;;10.77;;
33491;SDS011;20010;51.488;7.232;2023-12-20T05:35:40;22.40;;;10.60;;
33491;SDS011;20010;51.488;7.232;2023-12-20T05:38:07;23.45;;;11.02;;
33491;SDS011;20010;51.488;7.232;2023-12-20T05:40:34;21.35;;;8.80;;
33491;SDS011;20010;51.488;7.232;2023-12-20T05:43:00;27.23;;;10.82;;
33491;SDS011;20010;51.488;7.232;2023-12-20T05:45:27;27.23;;;10.75;;
33491;SDS011;20010;51.488;7.232;2023-12-20T05:47:54;24.88;;;10.43;;
33491;SDS011;20010;51.488;7.232;2023-12-20T05:50:20;17.90;;;8.80;;
33491;SDS011;20010;51.488;7.232;2023-12-20T05:52:47;20.58;;;8.65;;
33491;SDS011;20010;51.488;7.232;2023-12-20T05:55:16;24.65;;;10.45;;
33491;SDS011;20010;51.488;7.232;2023-12-20T05:57:43;21.20;;;8.70;;
33491;SDS011;20010;51.488;7.232;2023-12-20T06:00:10;16.63;;;8.98;;
33491;SDS011;20010;51.488;7.232;2023-12-20T06:02:37;27.35;;;10.68;;
33491;SDS011;20010;51.488;7.232;2023-12-20T06:05:05;28.10;;;10.27;;
33491;SDS011;20010;51.488;7.232;2023-12-20T06:07:32;23.98;;;9.27;;
33491;SDS011;20010;51.488;7.232;2023-12-20T06:10:00;21.83;;;10.18;;
33491;SDS011;20010;51.488;7.232;2023-12-20T06:12:27;35.53;;;12.07;;
33491;SDS011;20010;51.488;7.232;2023-12-20T06:14:55;30.55;;;12.05;;
33491;SDS011;20010;51.488;7.232;2023-12-20T06:17:22;32.10;;;13.43;;
33491;SDS011;20010;51.488;7.232;2023-12-20T06:19:48;22.48;;;12.25;;
33491;SDS011;20010;51.488;7.232;2023-12-20T06:22:15;29.75;;;14.65;;
33491;SDS011;20010;51.488;7.232;2023-12-20T06:24:42;23.60;;;12.95;;
33491;SDS011;20010;51.488;7.232;2023-12-20T06:27:09;25.23;;;13.95;;
33491;SDS011;20010;51.488;7.232;2023-12-20T06:29:35;28.25;;;13.32;;
33491;SDS011;20010;51.488;7.232;2023-12-20T06:32:02;29.90;;;15.20;;
33491;SDS011;20010;51.488;7.232;2023-12-20T06:34:29;27.23;;;15.75;;
33491;SDS011;20010;51.488;7.232;2023-12-20T06:36:56;30.23;;;12.45;;
33491;SDS011;20010;51.488;7.232;2023-12-20T06:39:27;26.65;;;12.20;;
33491;SDS011;20010;51.488;7.232;2023-12-20T06:41:55;26.98;;;12.70;;
33491;SDS011;20010;51.488;7.232;2023-12-20T06:44:21;28.40;;;12.32;;
33491;SDS011;20010;51.488;7.232;2023-12-20T06:46:48;27.38;;;12.23;;
33491;SDS011;20010;51.488;7.232;2023-12-20T06:49:15;21.27;;;11.85;;
33491;SDS011;20010;51.488;7.232;2023-12-20T06:51:42;28.20;;;13.20;;
33491;SDS011;20010;51.488;7.232;2023-12-20T06:54:09;31.02;;;14.65;;
33491;SDS011;20010;51.488;7.232;2023-12-20T06:56:36;23.75;;;13.35;;
33491;SDS011;20010;51.488;7.232;2023-12-20T06:59:03;22.20;;;12.18;;
33491;SDS011;20010;51.488;7.232;2023-12-20T07:01:29;21.95;;;12.88;;
33491;SDS011;20010;51.488;7.232;2023-12-20T07:03:56;27.75;;;13.32;;
33491;SDS011;20010;51.488;7.232;2023-12-20T07:06:23;28.08;;;12.20;;
33491;SDS011;20010;51.488;7.232;2023-12-20T07:08:52;29.20;;;13.02;;
33491;SDS011;20010;51.488;7.232;2023-12-20T07:11:19;27.25;;;12.75;;
33491;SDS011;20010;51.488;7.232;2023-12-20T07:13:47;25.15;;;14.57;;
33491;SDS011;20010;51.488;7.232;2023-12-20T07:16:15;25.15;;;13.18;;
33491;SDS011;20010;51.488;7.232;2023-12-20T07:18:41;32.28;;;13.45;;
33491;SDS011;20010;51.488;7.232;2023-12-20T07:21:08;23.38;;;11.88;;
33491;SDS011;20010;51.488;7.232;2023-12-20T07:23:35;23.13;;;13.10;;
33491;SDS011;20010;51.488;7.232;2023-12-20T07:26:01;25.60;;;11.85;;
33491;SDS011;20010;51.488;7.232;2023-12-20T07:28:28;27.13;;;11.57;;
33491;SDS011;20010;51.488;7.232;2023-12-20T07:30:55;21.08;;;11.52;;
33491;SDS011;20010;51.488;7.232;2023-12-20T07:33:23;26.92;;;12.52;;
33491;SDS011;20010;51.488;7.232;2023-12-20T07:35:51;22.60;;;11.13;;
33491;SDS011;20010;51.488;7.232;2023-12-20T07:38:18;26.70;;;11.50;;
33491;SDS011;20010;51.488;7.232;2023-12-20T07:40:45;25.10;;;11.90;;
33491;SDS011;20010;51.488;7.232;2023-12-20T07:43:12;26.52;;;10.80;;
33491;SDS011;20010;51.488;7.232;2023-12-20T07:45:38;14.32;;;10.75;;
33491;SDS011;20010;51.488;7.232;2023-12-20T07:48:06;23.00;;;13.05;;
33491;SDS011;20010;51.488;7.232;2023-12-20T07:50:33;21.42;;;11.73;;
33491;SDS011;20010;51.488;7.232;2023-12-20T07:53:00;21.98;;;11.10;;
33491;SDS011;20010;51.488;7.232;2023-12-20T07:55:27;35.53;;;14.20;;
33491;SDS011;20010;51.488;7.232;2023-12-20T07:57:54;26.17;;;13.00;;
33491;SDS011;20010;51.488;7.232;2023-12-20T08:00:20;25.33;;;12.52;;
33491;SDS011;20010;51.488;7.232;2023-12-20T08:02:47;19.23;;;11.48;;
33491;SDS011;20010;51.488;7.232;2023-12-20T08:05:14;24.45;;;11.35;;
33491;SDS011;20010;51.488;7.232;2023-12-20T08:07:42;19.80;;;10.90;;
33491;SDS011;20010;51.488;7.232;2023-12-20T08:10:09;20.95;;;11.57;;
33491;SDS011;20010;51.488;7.232;2023-12-20T08:12:36;17.52;;;10.13;;
33491;SDS011;20010;51.488;7.232;2023-12-20T08:15:03;18.25;;;10.70;;
33491;SDS011;20010;51.488;7.232;2023-12-20T08:17:31;24.58;;;10.77;;
33491;SDS011;20010;51.488;7.232;2023-12-20T08:19:58;29.50;;;10.70;;
33491;SDS011;20010;51.488;7.232;2023-12-20T08:22:25;19.30;;;10.32;;
33491;SDS011;20010;51.488;7.232;2023-12-20T08:24:52;17.10;;;9.00;;
33491;SDS011;20010;51.488;7.232;2023-12-20T08:27:19;20.63;;;9.63;;
33491;SDS011;20010;51.488;7.232;2023-12-20T08:29:45;22.63;;;10.75;;
33491;SDS011;20010;51.488;7.232;2023-12-20T08:32:12;29.40;;;10.35;;
33491;SDS011;20010;51.488;7.232;2023-12-20T08:34:39;20.58;;;9.38;;
33491;SDS011;20010;51.488;7.232;2023-12-20T08:37:06;25.30;;;10.00;;
33491;SDS011;20010;51.488;7.232;2023-12-20T08:39:33;23.55;;;9.68;;
33491;SDS011;20010;51.488;7.232;2023-12-20T08:42:00;20.75;;;8.68;;
33491;SDS011;20010;51.488;7.232;2023-12-20T08:44:27;19.67;;;9.02;;
33491;SDS011;20010;51.488;7.232;2023-12-20T08:46:53;20.30;;;9.43;;
33491;SDS011;20010;51.488;7.232;2023-12-20T08:49:24;22.67;;;9.80;;
33491;SDS011;20010;51.488;7.232;2023-12-20T08:51:52;21.92;;;8.85;;
33491;SDS011;20010;51.488;7.232;2023-12-20T08:54:19;24.50;;;10.82;;
33491;SDS011;20010;51.488;7.232;2023-12-20T08:56:45;19.23;;;8.98;;
33491;SDS011;20010;51.488;7.232;2023-12-20T08:59:12;24.30;;;10.32;;
33491;SDS011;20010;51.488;7.232;2023-12-20T09:01:39;20.70;;;9.30;;
33491;SDS011;20010;51.488;7.232;2023-12-20T09:04:06;17.73;;;10.50;;
33491;SDS011;20010;51.488;7.232;2023-12-20T09:06:33;21.45;;;9.32;;
33491;SDS011;20010;51.488;7.232;2023-12-20T09:08:59;23.88;;;8.23;;
33491;SDS011;20010;51.488;7.232;2023-12-20T09:11:26;22.35;;;8.90;;
33491;SDS011;20010;51.488;7.232;2023-12-20T09:13:54;23.60;;;9.65;;
33491;SDS011;20010;51.488;7.232;2023-12-20T09:16:20;16.10;;;8.45;;
33491;SDS011;20010;51.488;7.232;2023-12-20T09:18:47;25.17;;;9.60;;
33491;SDS011;20010;51.488;7.232;2023-12-20T09:21:14;23.45;;;8.75;;
33491;SDS011;20010;51.488;7.232;2023-12-20T09:23:41;15.35;;;7.75;;
33491;SDS011;20010;51.488;7.232;2023-12-20T09:26:07;18.90;;;8.40;;
33491;SDS011;20010;51.488;7.232;2023-12-20T09:28:34;21.48;;;8.48;;
33491;SDS011;20010;51.488;7.232;2023-12-20T09:31:04;10.00;;;7.22;;
33491;SDS011;20010;51.488;7.232;2023-12-20T09:33:31;13.63;;;7.57;;
33491;SDS011;20010;51.488;7.232;2023-12-20T09:35:58;26.27;;;8.05;;
33491;SDS011;20010;51.488;7.232;2023-12-20T09:38:25;23.95;;;8.82;;
33491;SDS011;20010;51.488;7.232;2023-12-20T09:40:52;20.02;;;8.10;;
33491;SDS011;20010;51.488;7.232;2023-12-20T09:43:20;24.40;;;8.27;;
33491;SDS011;20010;51.488;7.232;2023-12-20T09:45:50;23.35;;;8.88;;
33491;SDS011;20010;51.488;7.232;2023-12-20T09:48:19;19.90;;;7.63;;
33491;SDS011;20010;51.488;7.232;2023-12-20T09:50:46;19.40;;;7.75;;
33491;SDS011;20010;51.488;7.232;2023-12-20T09:53:19;19.77;;;7.00;;
33491;SDS011;20010;51.488;7.232;2023-12-20T09:55:46;17.88;;;7.47;;
33491;SDS011;20010;51.488;7.232;2023-12-20T09:58:13;17.63;;;7.07;;
33491;SDS011;20010;51.488;7.232;2023-12-20T10:00:39;19.20;;;7.72;;
33491;SDS011;20010;51.488;7.232;2023-12-20T10:03:06;26.35;;;9.00;;
33491;SDS011;20010;51.488;7.232;2023-12-20T10:05:34;18.48;;;7.63;;
33491;SDS011;20010;51.488;7.232;2023-12-20T10:08:04;22.25;;;9.05;;
33491;SDS011;20010;51.488;7.232;2023-12-20T10:10:31;18.95;;;6.85;;
33491;SDS011;20010;51.488;7.232;2023-12-20T10:13:11;18.02;;;7.78;;
33491;SDS011;20010;51.488;7.232;2023-12-20T10:15:40;20.77;;;7.95;;
33491;SDS011;20010;51.488;7.232;2023-12-20T10:18:08;17.80;;;7.38;;
33491;SDS011;20010;51.488;7.232;2023-12-20T10:20:35;16.42;;;7.55;;
33491;SDS011;20010;51.488;7.232;2023-12-20T10:23:01;19.50;;;7.97;;
33491;SDS011;20010;51.488;7.232;2023-12-20T10:25:28;27.70;;;9.63;;
33491;SDS011;20010;51.488;7.232;2023-12-20T10:28:14;15.07;;;7.60;;
33491;SDS011;20010;51.488;7.232;2023-12-20T10:30:47;12.80;;;7.30;;
33491;SDS011;20010;51.488;7.232;2023-12-20T10:33:22;20.63;;;9.13;;
33491;SDS011;20010;51.488;7.232;2023-12-20T10:35:51;24.15;;;8.40;;
33491;SDS011;20010;51.488;7.232;2023-12-20T10:38:18;15.85;;;8.07;;
33491;SDS011;20010;51.488;7.232;2023-12-20T10:40:45;24.23;;;8.68;;
33491;SDS011;20010;51.488;7.232;2023-12-20T10:43:12;22.95;;;9.15;;
33491;SDS011;20010;51.488;7.232;2023-12-20T10:45:44;17.00;;;8.27;;
33491;SDS011;20010;51.488;7.232;2023-12-20T10:48:11;18.10;;;9.05;;
33491;SDS011;20010;51.488;7.232;2023-12-20T10:50:38;16.73;;;7.00;;
33491;SDS011;20010;51.488;7.232;2023-12-20T10:53:07;16.58;;;7.13;;
33491;SDS011;20010;51.488;7.232;2023-12-20T10:55:34;19.02;;;8.32;;
33491;SDS011;20010;51.488;7.232;2023-12-20T10:58:01;19.02;;;7.38;;
33491;SDS011;20010;51.488;7.232;2023-12-20T11:00:29;15.00;;;7.47;;
33491;SDS011;20010;51.488;7.232;2023-12-20T11:02:59;14.88;;;7.57;;
33491;SDS011;20010;51.488;7.232;2023-12-20T11:08:33;18.10;;;7.80;;
33491;SDS011;20010;51.488;7.232;2023-12-20T11:11:07;27.35;;;8.23;;
33491;SDS011;20010;51.488;7.232;2023-12-20T11:13:41;25.35;;;8.73;;
33491;SDS011;20010;51.488;7.232;2023-12-20T11:18:38;21.58;;;7.90;;
33491;SDS011;20010;51.488;7.232;2023-12-20T11:21:07;21.65;;;7.97;;
33491;SDS011;20010;51.488;7.232;2023-12-20T11:23:33;19.05;;;8.05;;
33491;SDS011;20010;51.488;7.232;2023-12-20T11:26:01;20.40;;;8.40;;
33491;SDS011;20010;51.488;7.232;2023-12-20T11:28:29;18.35;;;7.80;;
33491;SDS011;20010;51.488;7.232;2023-12-20T11:31:00;18.00;;;8.63;;
33491;SDS011;20010;51.488;7.232;2023-12-20T11:33:32;21.95;;;8.93;;
33491;SDS011;20010;51.488;7.232;2023-12-20T11:36:02;19.50;;;9.10;;
33491;SDS011;20010;51.488;7.232;2023-12-20T11:38:39;20.77;;;7.60;;
33491;SDS011;20010;51.488;7.232;2023-12-20T11:41:19;18.23;;;9.50;;
33491;SDS011;20010;51.488;7.232;2023-12-20T11:43:52;21.80;;;9.00;;
33491;SDS011;20010;51.488;7.232;2023-12-20T11:46:19;16.98;;;8.65;;
33491;SDS011;20010;51.488;7.232;2023-12-20T11:48:47;19.92;;;9.63;;
33491;SDS011;20010;51.488;7.232;2023-12-20T11:51:15;19.70;;;9.20;;
33491;SDS011;20010;51.488;7.232;2023-12-20T11:53:41;19.50;;;7.93;;
33491;SDS011;20010;51.488;7.232;2023-12-20T11:56:10;15.85;;;8.55;;
33491;SDS011;20010;51.488;7.232;2023-12-20T11:58:37;13.65;;;7.93;;
33491;SDS011;20010;51.488;7.232;2023-12-20T12:01:04;18.45;;;8.20;;
33491;SDS011;20010;51.488;7.232;2023-12-20T12:03:35;19.60;;;8.90;;
33491;SDS011;20010;51.488;7.232;2023-12-20T12:06:02;21.15;;;9.15;;
33491;SDS011;20010;51.488;7.232;2023-12-20T12:08:31;25.35;;;9.82;;
33491;SDS011;20010;51.488;7.232;2023-12-20T12:10:59;19.00;;;8.88;;
33491;SDS011;20010;51.488;7.232;2023-12-20T12:13:25;23.95;;;10.68;;
33491;SDS011;20010;51.488;7.232;2023-12-20T12:15:54;18.65;;;8.50;;
33491;SDS011;20010;51.488;7.232;2023-12-20T12:18:20;21.58;;;10.07;;
33491;SDS011;20010;51.488;7.232;2023-12-20T12:20:47;18.25;;;9.82;;
33491;SDS011;20010;51.488;7.232;2023-12-20T12:23:14;23.60;;;11.25;;
33491;SDS011;20010;51.488;7.232;2023-12-20T12:25:41;22.45;;;11.18;;
33491;SDS011;20010;51.488;7.232;2023-12-20T12:28:09;26.08;;;12.30;;
33491;SDS011;20010;51.488;7.232;2023-12-20T12:30:36;15.25;;;10.82;;
33491;SDS011;20010;51.488;7.232;2023-12-20T12:33:11;29.75;;;12.05;;
33491;SDS011;20010;51.488;7.232;2023-12-20T12:35:39;41.45;;;13.32;;
33491;SDS011;20010;51.488;7.232;2023-12-20T12:38:06;20.98;;;10.63;;
33491;SDS011;20010;51.488;7.232;2023-12-20T12:40:36;22.65;;;11.32;;
33491;SDS011;20010;51.488;7.232;2023-12-20T12:43:03;27.58;;;12.25;;
33491;SDS011;20010;51.488;7.232;2023-12-20T12:45:31;22.08;;;12.73;;
33491;SDS011;20010;51.488;7.232;2023-12-20T12:48:00;21.42;;;11.80;;
33491;SDS011;20010;51.488;7.232;2023-12-20T12:50:27;19.33;;;10.70;;
33491;SDS011;20010;51.488;7.232;2023-12-20T12:52:55;23.85;;;11.77;;
33491;SDS011;20010;51.488;7.232;2023-12-20T12:55:22;24.73;;;11.38;;
33491;SDS011;20010;51.488;7.232;2023-12-20T12:57:48;24.20;;;11.05;;
33491;SDS011;20010;51.488;7.232;2023-12-20T13:00:15;24.92;;;11.80;;
33491;SDS011;20010;51.488;7.232;2023-12-20T13:02:42;20.20;;;10.40;;
33491;SDS011;20010;51.488;7.232;2023-12-20T13:05:09;20.15;;;11.38;;
33491;SDS011;20010;51.488;7.232;2023-12-20T13:07:36;24.45;;;11.00;;
33491;SDS011;20010;51.488;7.232;2023-12-20T13:10:05;20.63;;;11.10;;
33491;SDS011;20010;51.488;7.232;2023-12-20T13:12:32;20.48;;;10.40;;
33491;SDS011;20010;51.488;7.232;2023-12-20T13:14:59;20.20;;;10.52;;
33491;SDS011;20010;51.488;7.232;2023-12-20T13:17:25;17.80;;;9.88;;
33491;SDS011;20010;51.488;7.232;2023-12-20T13:19:55;25.70;;;11.20;;
33491;SDS011;20010;51.488;7.232;2023-12-20T13:22:23;21.98;;;11.07;;
33491;SDS011;20010;51.488;7.232;2023-12-20T13:24:50;24.90;;;11.65;;
33491;SDS011;20010;51.488;7.232;2023-12-20T13:27:18;20.38;;;10.00;;
33491;SDS011;20010;51.488;7.232;2023-12-20T13:29:45;24.38;;;11.10;;
33491;SDS011;20010;51.488;7.232;2023-12-20T13:32:11;17.42;;;10.05;;
33491;SDS011;20010;51.488;7.232;2023-12-20T13:34:38;29.73;;;11.43;;
33491;SDS011;20010;51.488;7.232;2023-12-20T13:37:05;17.58;;;10.77;;
33491;SDS011;20010;51.488;7.232;2023-12-20T13:39:32;28.08;;;11.95;;
33491;SDS011;20010;51.488;7.232;2023-12-20T13:41:59;18.95;;;10.75;;
33491;SDS011;20010;51.488;7.232;2023-12-20T13:44:27;20.65;;;11.65;;
33491;SDS011;20010;51.488;7.232;2023-12-20T13:46:54;24.70;;;13.43;;
33491;SDS011;20010;51.488;7.232;2023-12-20T13:49:23;17.55;;;12.35;;
33491;SDS011;20010;51.488;7.232;2023-12-20T13:51:53;21.75;;;12.13;;
33491;SDS011;20010;51.488;7.232;2023-12-20T13:54:21;19.58;;;11.85;;
33491;SDS011;20010;51.488;7.232;2023-12-20T13:56:48;15.88;;;12.77;;
33491;SDS011;20010;51.488;7.232;2023-12-20T13:59:32;18.25;;;13.00;;
33491;SDS011;20010;51.488;7.232;2023-12-20T14:01:59;19.33;;;13.57;;
33491;SDS011;20010;51.488;7.232;2023-12-20T14:04:27;19.50;;;12.80;;
33491;SDS011;20010;51.488;7.232;2023-12-20T14:09:37;19.75;;;13.35;;
33491;SDS011;20010;51.488;7.232;2023-12-20T14:12:04;20.73;;;14.60;;
33491;SDS011;20010;51.488;7.232;2023-12-20T14:14:31;16.50;;;13.95;;
33491;SDS011;20010;51.488;7.232;2023-12-20T14:16:58;20.83;;;14.50;;
33491;SDS011;20010;51.488;7.232;2023-12-20T14:19:25;23.60;;;15.40;;
33491;SDS011;20010;51.488;7.232;2023-12-20T14:21:53;21.17;;;15.50;;
33491;SDS011;20010;51.488;7.232;2023-12-20T14:24:20;20.33;;;15.70;;
33491;SDS011;20010;51.488;7.232;2023-12-20T14:26:46;26.17;;;18.10;;
33491;SDS011;20010;51.488;7.232;2023-12-20T14:29:13;20.80;;;12.98;;
33491;SDS011;20010;51.488;7.232;2023-12-20T14:31:40;21.92;;;15.00;;
33491;SDS011;20010;51.488;7.232;2023-12-20T14:34:08;21.23;;;13.38;;
33491;SDS011;20010;51.488;7.232;2023-12-20T14:36:35;23.25;;;13.63;;
33491;SDS011;20010;51.488;7.232;2023-12-20T14:39:02;18.60;;;13.35;;